Time;durP1;ratioP1;P1;durP2;ratioP2;P2;SDS_P1;SDS_P2;PMS_P1;PMS_P2;Temp;Humidity;BMP_temperature;BMP_pressure;BME280_temperature;BME280_humidity;BME280_pressure;Samples;Min_cycle;Max_cycle;Signal;HPM_P1;HPM_P2
2022/12/10 00:00:41;;;;;;;;;;;;;;;;;;5100912;28;19913;-57
2022/12/10 00:03:06;;;;;;;;;;;;;;;;;;5065796;28;20007;-59
2022/12/10 00:05:31;;;;;;;;;;;;;;;;;;5068989;28;19923;-58
2022/12/10 00:07:56;;;;;;;;;;;;;;;;;;5083062;28;19920;-60
2022/12/10 00:10:22;;;;;;;;;;;;;;;;;;5069935;28;19955;-59
2022/12/10 00:12:47;;;;;;;;;;;;;;;;;;5069223;28;19970;-60
2022/12/10 00:15:12;;;;;;;;;;;;;;;;;;5070411;28;19912;-61
2022/12/10 00:17:37;;;;;;;;;;;;;;;;;;5070360;28;19919;-60
2022/12/10 00:20:02;;;;;;;;;;;;;;;;;;5079144;28;19963;-60
2022/12/10 00:22:27;;;;;;;;;;;;;;;;;;5080281;28;19965;-61
2022/12/10 00:24:52;;;;;;;;;;;;;;;;;;5070281;28;19913;-61
2022/12/10 00:27:18;;;;;;;;;;;;;;;;;;5069138;28;19943;-60
2022/12/10 00:29:43;;;;;;;;;;;;;;;;;;5064373;28;19958;-60
2022/12/10 00:32:08;;;;;;;;;;;;;;;;;;5070316;28;19923;-60
2022/12/10 00:34:34;;;;;;;;;;;;;;;;;;5069390;28;19947;-60
2022/12/10 00:36:59;;;;;;;;;;;;;;;;;;5069871;28;19912;-61
2022/12/10 00:39:24;;;;;;;;;;;;;;;;;;5069362;28;19916;-60
2022/12/10 00:41:49;;;;;;;;;;;;;;;;;;5068404;28;20641;-60
2022/12/10 00:44:14;;;;;;;;;;;;;;;;;;5069202;28;20365;-60
2022/12/10 00:46:39;;;;;;;;;;;;;;;;;;5068729;28;20567;-60
2022/12/10 00:49:04;;;;;;;;;;;;;;;;;;5100973;28;19912;-60
2022/12/10 00:51:30;;;;;;;;;;;;;;;;;;5069551;28;19966;-60
2022/12/10 00:53:55;;;;;;;;;;;;;;;;;;5063648;28;19919;-60
2022/12/10 00:56:20;;;;;;;;;;;;;;;;;;5071116;28;19998;-60
2022/12/10 00:58:45;;;;;;;;;;;;;;;;;;5068052;28;19916;-60
2022/12/10 01:01:10;;;;;;;;;;;;;;;;;;5070898;28;19919;-60
2022/12/10 01:03:35;;;;;;;;;;;;;;;;;;5072696;28;20288;-60
2022/12/10 01:06:00;;;;;;;;;;;;;;;;;;5069682;28;20443;-60
2022/12/10 01:08:25;;;;;;;;;;;;;;;;;;5068088;28;19921;-59
2022/12/10 01:10:50;;;;;;;;;;;;;;;;;;5068122;28;19912;-58
2022/12/10 01:13:16;;;;;;;;;;;;;;;;;;5068566;28;19935;-60
2022/12/10 01:15:41;;;;;;;;;;;;;;;;;;5069025;28;19920;-59
2022/12/10 01:18:06;;;;;;;;;;;;;;;;;;5069784;28;20003;-59
2022/12/10 01:20:31;;;;;;;;;;;;;;;;;;5069114;28;19913;-61
2022/12/10 01:22:56;;;;;;;;;;;;;;;;;;5068708;28;19908;-60
2022/12/10 01:25:21;;;;;;;;;;;;;;;;;;5099996;28;19912;-60
2022/12/10 01:27:46;;;;;;;;;;;;;;;;;;5101101;28;20019;-59
2022/12/10 01:30:12;;;;;;;;;;;;;;;;;;5100888;28;19916;-58
2022/12/10 01:32:37;;;;;;;;;;;;;;;;;;5066527;28;20444;-59
2022/12/10 01:35:02;;;;;;;;;;;;;;;;;;5069006;28;20550;-60
2022/12/10 01:37:27;;;;;;;;;;;;;;;;;;5101818;28;20430;-60
2022/12/10 01:39:52;;;;;;;;;;;;;;;;;;5069625;28;20053;-61
2022/12/10 01:42:17;;;;;;;;;;;;;;;;;;5068964;28;19917;-60
2022/12/10 01:44:42;;;;;;;;;;;;;;;;;;5096728;28;19920;-60
2022/12/10 01:47:07;;;;;;;;;;;;;;;;;;5100867;28;19924;-60
2022/12/10 01:49:33;;;;;;;;;;;;;;;;;;5069905;28;19924;-60
2022/12/10 01:51:58;;;;;;;;;;;;;;;;;;5070097;28;19916;-60
2022/12/10 01:54:23;;;;;;;;;;;;;;;;;;5062874;28;19923;-60
2022/12/10 01:56:48;;;;;;;;;;;;;;;;;;5098600;28;19920;-60
2022/12/10 01:59:13;;;;;;;;;;;;;;;;;;5067643;28;19963;-60
2022/12/10 02:01:38;;;;;;;;;;;;;;;;;;5071956;28;19913;-60
2022/12/10 02:04:03;;;;;;;;;;;;;;;;;;5069322;28;19939;-60
2022/12/10 02:06:29;;;;;;;;;;;;;;;;;;5094356;28;20283;-60
2022/12/10 02:08:54;;;;;;;;;;;;;;;;;;5067205;28;19917;-60
2022/12/10 02:11:19;;;;;;;;;;;;;;;;;;5105827;27;19984;-60
2022/12/10 02:13:44;;;;;;;;;;;;;;;;;;5070519;28;19964;-60
2022/12/10 02:16:09;;;;;;;;;;;;;;;;;;5094375;28;19912;-60
2022/12/10 02:18:34;;;;;;;;;;;;;;;;;;5075807;28;19912;-60
2022/12/10 02:20:59;;;;;;;;;;;;;;;;;;5071967;28;20020;-60
2022/12/10 02:23:24;;;;;;;;;;;;;;;;;;5071436;28;20392;-60
2022/12/10 02:25:50;;;;;;;;;;;;;;;;;;5076921;28;19920;-60
2022/12/10 02:28:15;;;;;;;;;;;;;;;;;;5097901;28;19935;-59
2022/12/10 02:30:40;;;;;;;;;;;;;;;;;;5074000;28;20123;-59
2022/12/10 02:33:05;;;;;;;;;;;;;;;;;;5071735;28;19913;-59
2022/12/10 02:35:30;;;;;;;;;;;;;;;;;;5105170;28;20447;-60
2022/12/10 02:37:55;;;;;;;;;;;;;;;;;;5070532;28;19912;-60
2022/12/10 02:40:20;;;;;;;;;;;;;;;;;;5075251;28;19918;-60
2022/12/10 02:42:46;;;;;;;;;;;;;;;;;;5103248;28;20038;-59
2022/12/10 02:45:11;;;;;;;;;;;;;;;;;;5071182;28;20369;-60
2022/12/10 02:47:36;;;;;;;;;;;;;;;;;;5067643;28;20011;-59
2022/12/10 02:50:01;;;;;;;;;;;;;;;;;;5073341;28;19917;-59
2022/12/10 02:52:26;;;;;;;;;;;;;;;;;;5071879;28;20022;-59
2022/12/10 02:54:51;;;;;;;;;;;;;;;;;;5063500;28;19917;-59
2022/12/10 02:57:16;;;;;;;;;;;;;;;;;;5069521;28;20015;-59
2022/12/10 02:59:41;;;;;;;;;;;;;;;;;;5060811;28;19924;-59
2022/12/10 03:02:07;;;;;;;;;;;;;;;;;;5101149;28;20396;-59
2022/12/10 03:04:32;;;;;;;;;;;;;;;;;;5071686;28;20374;-59
2022/12/10 03:06:57;;;;;;;;;;;;;;;;;;5069886;28;20265;-58
2022/12/10 03:09:23;;;;;;;;;;;;;;;;;;5103948;28;20383;-60
2022/12/10 03:11:48;;;;;;;;;;;;;;;;;;5081263;28;19920;-60
2022/12/10 03:14:13;;;;;;;;;;;;;;;;;;5068044;28;19924;-60
2022/12/10 03:16:38;;;;;;;;;;;;;;;;;;5103833;28;20007;-60
2022/12/10 03:19:04;;;;;;;;;;;;;;;;;;5070592;28;19912;-60
2022/12/10 03:21:29;;;;;;;;;;;;;;;;;;5074685;28;20007;-60
2022/12/10 03:23:54;;;;;;;;;;;;;;;;;;5088002;28;19920;-60
2022/12/10 03:26:19;;;;;;;;;;;;;;;;;;5102865;28;19912;-59
2022/12/10 03:28:44;;;;;;;;;;;;;;;;;;5063903;28;19960;-60
2022/12/10 03:31:09;;;;;;;;;;;;;;;;;;5070039;28;19923;-60
2022/12/10 03:33:34;;;;;;;;;;;;;;;;;;5099330;28;19917;-60
2022/12/10 03:36:00;;;;;;;;;;;;;;;;;;5100222;28;19916;-60
2022/12/10 03:38:25;;;;;;;;;;;;;;;;;;5063303;28;20391;-60
2022/12/10 03:40:50;;;;;;;;;;;;;;;;;;5099482;28;20658;-60
2022/12/10 03:43:15;;;;;;;;;;;;;;;;;;5070948;28;19927;-60
2022/12/10 03:45:40;;;;;;;;;;;;;;;;;;5072055;28;20000;-60
2022/12/10 03:48:05;;;;;;;;;;;;;;;;;;5070177;28;19913;-61
2022/12/10 03:50:30;;;;;;;;;;;;;;;;;;5071061;28;19912;-60
2022/12/10 03:52:55;;;;;;;;;;;;;;;;;;5102452;28;20319;-60
2022/12/10 03:55:21;;;;;;;;;;;;;;;;;;5071228;28;19920;-60
2022/12/10 03:57:46;;;;;;;;;;;;;;;;;;5071883;28;20311;-60
2022/12/10 04:00:11;;;;;;;;;;;;;;;;;;5071984;28;19948;-60
2022/12/10 04:02:36;;;;;;;;;;;;;;;;;;5067184;28;20007;-60
2022/12/10 04:05:01;;;;;;;;;;;;;;;;;;5102519;28;19916;-58
2022/12/10 04:07:26;;;;;;;;;;;;;;;;;;5071495;28;19980;-60
2022/12/10 04:09:52;;;;;;;;;;;;;;;;;;5067701;28;19920;-60
2022/12/10 04:12:17;;;;;;;;;;;;;;;;;;5091684;28;19960;-60
2022/12/10 04:17:25;;;;;;;;;;;;;;;;;;5063956;28;19938;-60
2022/12/10 04:19:51;;;;;;;;;;;;;;;;;;5068244;28;19917;-60
2022/12/10 04:27:51;;;;;;;;;;;;;;;;;;5065801;28;19959;-58
2022/12/10 04:30:16;;;;;;;;;;;;;;;;;;5072712;28;19982;-60
2022/12/10 04:32:41;;;;;;;;;;;;;;;;;;5070231;28;19917;-59
2022/12/10 04:35:07;;;;;;;;;;;;;;;;;;5094887;27;19962;-60
2022/12/10 04:37:32;;;;;;;;;;;;;;;;;;5095144;28;20359;-60
2022/12/10 04:39:57;;;;;;;;;;;;;;;;;;5071675;28;20291;-59
2022/12/10 04:42:22;;;;;;;;;;;;;;;;;;5069228;28;19920;-58
2022/12/10 04:44:47;;;;;;;;;;;;;;;;;;5100295;28;20376;-60
2022/12/10 04:47:12;;;;;;;;;;;;;;;;;;5069505;28;19912;-59
2022/12/10 04:49:37;;;;;;;;;;;;;;;;;;5070829;28;19920;-59
2022/12/10 04:52:02;;;;;;;;;;;;;;;;;;5066438;28;19985;-59
2022/12/10 04:54:28;;;;;;;;;;;;;;;;;;5101091;28;20026;-59
2022/12/10 04:56:53;;;;;;;;;;;;;;;;;;5069982;28;19928;-59
2022/12/10 04:59:18;;;;;;;;;;;;;;;;;;5068952;28;20388;-60
2022/12/10 05:01:43;;;;;;;;;;;;;;;;;;5068439;28;19913;-59
2022/12/10 05:04:08;;;;;;;;;;;;;;;;;;5069947;28;20381;-60
2022/12/10 05:06:33;;;;;;;;;;;;;;;;;;5104973;28;20491;-60
2022/12/10 05:08:58;;;;;;;;;;;;;;;;;;5069169;28;19912;-59
2022/12/10 05:11:24;;;;;;;;;;;;;;;;;;5069673;28;19920;-59
2022/12/10 05:13:49;;;;;;;;;;;;;;;;;;5065327;28;19912;-60
2022/12/10 05:16:14;;;;;;;;;;;;;;;;;;5069812;28;19912;-59
2022/12/10 05:18:39;;;;;;;;;;;;;;;;;;5098742;28;19912;-60
2022/12/10 05:21:04;;;;;;;;;;;;;;;;;;5075042;28;20342;-60
2022/12/10 05:23:29;;;;;;;;;;;;;;;;;;5085046;28;19912;-60
2022/12/10 05:25:55;;;;;;;;;;;;;;;;;;5069277;28;19999;-60
2022/12/10 05:28:20;;;;;;;;;;;;;;;;;;5070179;28;19928;-60
2022/12/10 05:30:45;;;;;;;;;;;;;;;;;;5070088;28;19920;-59
2022/12/10 05:33:10;;;;;;;;;;;;;;;;;;5103365;28;20348;-60
2022/12/10 05:35:35;;;;;;;;;;;;;;;;;;5072757;28;19965;-59
2022/12/10 05:38:00;;;;;;;;;;;;;;;;;;5105148;28;19959;-60
2022/12/10 05:40:25;;;;;;;;;;;;;;;;;;5081553;28;20018;-59
2022/12/10 05:42:50;;;;;;;;;;;;;;;;;;5069393;28;20313;-60
2022/12/10 05:45:16;;;;;;;;;;;;;;;;;;5097059;27;19912;-59
2022/12/10 05:47:41;;;;;;;;;;;;;;;;;;5074872;28;19919;-60
2022/12/10 05:50:06;;;;;;;;;;;;;;;;;;5073161;28;19913;-59
2022/12/10 05:52:31;;;;;;;;;;;;;;;;;;5070009;28;19983;-59
2022/12/10 05:54:56;;;;;;;;;;;;;;;;;;5072206;28;19923;-59
2022/12/10 05:57:21;;;;;;;;;;;;;;;;;;5090475;28;19913;-59
2022/12/10 05:59:46;;;;;;;;;;;;;;;;;;5076369;28;20376;-60
2022/12/10 06:02:11;;;;;;;;;;;;;;;;;;5070307;28;19912;-60
2022/12/10 06:04:37;;;;;;;;;;;;;;;;;;5071948;28;19926;-60
2022/12/10 06:07:02;;;;;;;;;;;;;;;;;;5070377;28;20262;-60
2022/12/10 06:09:27;;;;;;;;;;;;;;;;;;5068575;28;20345;-59
2022/12/10 06:11:52;;;;;;;;;;;;;;;;;;5075736;28;19922;-60
2022/12/10 06:14:17;;;;;;;;;;;;;;;;;;5104308;28;19955;-60
2022/12/10 06:16:42;;;;;;;;;;;;;;;;;;5070681;28;19913;-60
2022/12/10 06:19:07;;;;;;;;;;;;;;;;;;5075775;28;19913;-59
2022/12/10 06:21:34;;;;;;;;;;;;;;;;;;5072329;28;20368;-60
2022/12/10 06:23:59;;;;;;;;;;;;;;;;;;5068048;28;20377;-60
2022/12/10 06:26:24;;;;;;;;;;;;;;;;;;5103631;28;19916;-60
2022/12/10 06:28:49;;;;;;;;;;;;;;;;;;5070931;28;19927;-60
2022/12/10 06:31:14;;;;;;;;;;;;;;;;;;5072071;28;19932;-60
2022/12/10 06:33:40;;;;;;;;;;;;;;;;;;5103415;28;19913;-60
2022/12/10 06:36:05;;;;;;;;;;;;;;;;;;5066945;28;19939;-59
2022/12/10 06:38:30;;;;;;;;;;;;;;;;;;5105600;27;20328;-59
2022/12/10 06:40:55;;;;;;;;;;;;;;;;;;5073281;28;19912;-60
2022/12/10 06:43:20;;;;;;;;;;;;;;;;;;5069418;28;19928;-59
2022/12/10 06:45:45;;;;;;;;;;;;;;;;;;5067482;28;19974;-60
2022/12/10 06:48:10;;;;;;;;;;;;;;;;;;5071239;28;19919;-59
2022/12/10 06:50:36;;;;;;;;;;;;;;;;;;5072670;28;19912;-59
2022/12/10 06:53:01;;;;;;;;;;;;;;;;;;5072234;28;19924;-60
2022/12/10 06:55:26;;;;;;;;;;;;;;;;;;5069119;28;19913;-61
2022/12/10 06:57:52;;;;;;;;;;;;;;;;;;5065465;28;19982;-61
2022/12/10 07:00:17;;;;;;;;;;;;;;;;;;5099085;28;19969;-62
2022/12/10 07:02:42;;;;;;;;;;;;;;;;;;5070350;28;20027;-62
2022/12/10 07:05:07;;;;;;;;;;;;;;;;;;5100843;28;21922;-63
2022/12/10 07:07:32;;;;;;;;;;;;;;;;;;5101757;27;19912;-61
2022/12/10 07:09:57;;;;;;;;;;;;;;;;;;5070178;28;19923;-61
2022/12/10 07:12:22;;;;;;;;;;;;;;;;;;5069873;28;19916;-61
2022/12/10 07:14:47;;;;;;;;;;;;;;;;;;5066116;28;19913;-61
2022/12/10 07:17:13;;;;;;;;;;;;;;;;;;5068692;28;19920;-62
2022/12/10 07:19:38;;;;;;;;;;;;;;;;;;5068054;28;19920;-62
2022/12/10 07:22:03;;;;;;;;;;;;;;;;;;5067982;28;19912;-61
2022/12/10 07:24:28;;;;;;;;;;;;;;;;;;5070623;28;20003;-61
2022/12/10 07:26:53;;;;;;;;;;;;;;;;;;5070934;28;19920;-61
2022/12/10 07:29:18;;;;;;;;;;;;;;;;;;5064764;28;19921;-61
2022/12/10 07:31:43;;;;;;;;;;;;;;;;;;5069380;28;19928;-61
2022/12/10 07:34:09;;;;;;;;;;;;;;;;;;5068664;28;19944;-62
2022/12/10 07:36:34;;;;;;;;;;;;;;;;;;5095019;27;20204;-62
2022/12/10 07:38:59;;;;;;;;;;;;;;;;;;5061953;28;19913;-61
2022/12/10 07:41:24;;;;;;;;;;;;;;;;;;5071479;28;19914;-61
2022/12/10 07:43:49;;;;;;;;;;;;;;;;;;5067358;28;20422;-62
2022/12/10 07:46:14;;;;;;;;;;;;;;;;;;5069342;28;19959;-62
2022/12/10 07:48:39;;;;;;;;;;;;;;;;;;5065014;28;19924;-62
2022/12/10 07:51:05;;;;;;;;;;;;;;;;;;5072592;28;19946;-62
2022/12/10 07:53:30;;;;;;;;;;;;;;;;;;5068676;28;19951;-62
2022/12/10 07:55:55;;;;;;;;;;;;;;;;;;5070628;28;19934;-62
2022/12/10 07:58:20;;;;;;;;;;;;;;;;;;5100305;28;19920;-62
2022/12/10 08:00:45;;;;;;;;;;;;;;;;;;5066262;28;19931;-62
2022/12/10 08:03:10;;;;;;;;;;;;;;;;;;5080525;28;19971;-62
2022/12/10 08:05:35;;;;;;;;;;;;;;;;;;5069278;28;19912;-62
2022/12/10 08:08:01;;;;;;;;;;;;;;;;;;5104061;27;19912;-62
2022/12/10 08:10:26;;;;;;;;;;;;;;;;;;5068455;28;19940;-62
2022/12/10 08:12:51;;;;;;;;;;;;;;;;;;5063314;28;20467;-62
2022/12/10 08:15:16;;;;;;;;;;;;;;;;;;5060072;28;19927;-62
2022/12/10 08:17:41;;;;;;;;;;;;;;;;;;5101276;27;19954;-63
2022/12/10 08:20:06;;;;;;;;;;;;;;;;;;5065703;28;19919;-63
2022/12/10 08:22:33;;;;;;;;;;;;;;;;;;5067482;28;19920;-61
2022/12/10 08:24:59;;;;;;;;;;;;;;;;;;5059951;28;20258;-62
2022/12/10 08:27:24;;;;;;;;;;;;;;;;;;5060209;28;20376;-62
2022/12/10 08:29:49;;;;;;;;;;;;;;;;;;5067468;28;19916;-62
2022/12/10 08:32:14;;;;;;;;;;;;;;;;;;5058672;28;19925;-62
2022/12/10 08:34:39;;;;;;;;;;;;;;;;;;5070745;28;20003;-62
2022/12/10 08:37:04;;;;;;;;;;;;;;;;;;5062023;28;19959;-62
2022/12/10 08:39:29;;;;;;;;;;;;;;;;;;5069198;28;19912;-62
2022/12/10 08:41:55;;;;;;;;;;;;;;;;;;5068511;28;19978;-62
2022/12/10 08:44:20;;;;;;;;;;;;;;;;;;5064350;28;20006;-62
2022/12/10 08:46:45;;;;;;;;;;;;;;;;;;5068281;28;20331;-62
2022/12/10 08:49:10;;;;;;;;;;;;;;;;;;5067250;28;19975;-62
2022/12/10 08:51:35;;;;;;;;;;;;;;;;;;5090555;28;19916;-62
2022/12/10 08:54:00;;;;;;;;;;;;;;;;;;5068938;28;19912;-62
2022/12/10 08:56:25;;;;;;;;;;;;;;;;;;5062546;28;19938;-63
2022/12/10 08:58:51;;;;;;;;;;;;;;;;;;5094405;28;19955;-62
2022/12/10 09:01:16;;;;;;;;;;;;;;;;;;5092444;28;20354;-61
2022/12/10 09:03:41;;;;;;;;;;;;;;;;;;5069325;28;19951;-63
2022/12/10 09:06:06;;;;;;;;;;;;;;;;;;5071413;28;19919;-62
2022/12/10 09:08:31;;;;;;;;;;;;;;;;;;5085693;28;19995;-62
2022/12/10 09:10:56;;;;;;;;;;;;;;;;;;5069132;28;19918;-62
2022/12/10 09:13:21;;;;;;;;;;;;;;;;;;5063078;28;20470;-60
2022/12/10 09:15:47;;;;;;;;;;;;;;;;;;5067875;28;19913;-63
2022/12/10 09:18:12;;;;;;;;;;;;;;;;;;5068077;28;19916;-63
2022/12/10 09:20:37;;;;;;;;;;;;;;;;;;5061770;28;19924;-62
2022/12/10 09:23:02;;;;;;;;;;;;;;;;;;5069448;28;19975;-62
2022/12/10 09:25:27;;;;;;;;;;;;;;;;;;5101162;28;20330;-62
2022/12/10 09:27:52;;;;;;;;;;;;;;;;;;5101763;28;20278;-62
2022/12/10 09:30:17;;;;;;;;;;;;;;;;;;5065896;28;19912;-62
2022/12/10 09:32:42;;;;;;;;;;;;;;;;;;5069273;28;19916;-63
2022/12/10 09:35:08;;;;;;;;;;;;;;;;;;5062125;28;19917;-62
2022/12/10 09:37:33;;;;;;;;;;;;;;;;;;5081333;28;20391;-62
2022/12/10 09:39:58;;;;;;;;;;;;;;;;;;5102269;28;19912;-63
2022/12/10 09:42:23;;;;;;;;;;;;;;;;;;5061349;28;19916;-62
2022/12/10 09:44:48;;;;;;;;;;;;;;;;;;5060085;28;20003;-63
2022/12/10 09:47:13;;;;;;;;;;;;;;;;;;5063327;28;20369;-63
2022/12/10 09:49:38;;;;;;;;;;;;;;;;;;5079474;28;20066;-63
2022/12/10 09:52:04;;;;;;;;;;;;;;;;;;5064892;28;20312;-62
2022/12/10 09:54:29;;;;;;;;;;;;;;;;;;5092452;28;19913;-62
2022/12/10 09:56:54;;;;;;;;;;;;;;;;;;5067259;28;19962;-62
2022/12/10 09:59:19;;;;;;;;;;;;;;;;;;5091943;28;19913;-62
2022/12/10 10:01:44;;;;;;;;;;;;;;;;;;5060308;28;19913;-62
2022/12/10 10:04:09;;;;;;;;;;;;;;;;;;5074018;28;19912;-63
2022/12/10 10:06:34;;;;;;;;;;;;;;;;;;5077692;28;20003;-63
2022/12/10 10:09:00;;;;;;;;;;;;;;;;;;5070858;28;19909;-63
2022/12/10 10:11:25;;;;;;;;;;;;;;;;;;5068498;28;19917;-63
2022/12/10 10:13:50;;;;;;;;;;;;;;;;;;5066162;28;19912;-62
2022/12/10 10:16:15;;;;;;;;;;;;;;;;;;5093843;28;19908;-60
2022/12/10 10:18:40;;;;;;;;;;;;;;;;;;5077728;28;19920;-61
2022/12/10 10:21:05;;;;;;;;;;;;;;;;;;5069299;28;20003;-61
2022/12/10 10:23:30;;;;;;;;;;;;;;;;;;5070783;28;19912;-62
2022/12/10 10:25:56;;;;;;;;;;;;;;;;;;5075192;28;19909;-62
2022/12/10 10:28:21;;;;;;;;;;;;;;;;;;5073129;28;19924;-62
2022/12/10 10:30:46;;;;;;;;;;;;;;;;;;5077154;28;19916;-62
2022/12/10 10:33:11;;;;;;;;;;;;;;;;;;5070849;28;19921;-59
2022/12/10 10:35:36;;;;;;;;;;;;;;;;;;5067997;28;19921;-62
2022/12/10 10:38:01;;;;;;;;;;;;;;;;;;5071259;28;20289;-62
2022/12/10 10:40:27;;;;;;;;;;;;;;;;;;5067359;28;20347;-62
2022/12/10 10:42:52;;;;;;;;;;;;;;;;;;5067956;28;20020;-62
2022/12/10 10:45:17;;;;;;;;;;;;;;;;;;5065614;28;19912;-62
2022/12/10 10:47:42;;;;;;;;;;;;;;;;;;5073428;28;19915;-62
2022/12/10 10:50:07;;;;;;;;;;;;;;;;;;5073110;28;20452;-62
2022/12/10 10:52:32;;;;;;;;;;;;;;;;;;5071275;28;20368;-62
2022/12/10 10:54:57;;;;;;;;;;;;;;;;;;5067416;28;19912;-62
2022/12/10 10:57:23;;;;;;;;;;;;;;;;;;5105221;28;19913;-63
2022/12/10 10:59:48;;;;;;;;;;;;;;;;;;5073009;28;19913;-62
2022/12/10 11:02:13;;;;;;;;;;;;;;;;;;5068358;28;19936;-62
2022/12/10 11:04:39;;;;;;;;;;;;;;;;;;5081232;28;20135;-62
2022/12/10 11:07:04;;;;;;;;;;;;;;;;;;5101540;27;19924;-62
2022/12/10 11:09:29;;;;;;;;;;;;;;;;;;5063372;28;19913;-62
2022/12/10 11:11:54;;;;;;;;;;;;;;;;;;5100053;28;19924;-62
2022/12/10 11:14:19;;;;;;;;;;;;;;;;;;5065754;28;19913;-62
2022/12/10 11:16:44;;;;;;;;;;;;;;;;;;5065315;28;19963;-62
2022/12/10 11:19:09;;;;;;;;;;;;;;;;;;5069593;28;19935;-62
2022/12/10 11:21:34;;;;;;;;;;;;;;;;;;5098603;28;19913;-63
2022/12/10 11:24:00;;;;;;;;;;;;;;;;;;5094355;28;20005;-61
2022/12/10 11:26:25;;;;;;;;;;;;;;;;;;5065877;28;20372;-61
2022/12/10 11:28:50;;;;;;;;;;;;;;;;;;5069185;28;19955;-61
2022/12/10 11:31:15;;;;;;;;;;;;;;;;;;5066958;28;19958;-61
2022/12/10 11:33:41;;;;;;;;;;;;;;;;;;5068713;28;20007;-61
2022/12/10 11:36:06;;;;;;;;;;;;;;;;;;5070227;28;19912;-61
2022/12/10 11:38:31;;;;;;;;;;;;;;;;;;5064753;28;20331;-61
2022/12/10 11:40:56;;;;;;;;;;;;;;;;;;5070432;28;19912;-61
2022/12/10 11:43:22;;;;;;;;;;;;;;;;;;5080416;28;19943;-61
2022/12/10 11:45:47;;;;;;;;;;;;;;;;;;5073503;28;19912;-61
2022/12/10 11:48:12;;;;;;;;;;;;;;;;;;5068866;28;19912;-62
2022/12/10 11:50:37;;;;;;;;;;;;;;;;;;5099161;27;20001;-62
2022/12/10 11:53:02;;;;;;;;;;;;;;;;;;5068600;28;19970;-62
2022/12/10 11:55:27;;;;;;;;;;;;;;;;;;5063353;28;19920;-62
2022/12/10 11:57:53;;;;;;;;;;;;;;;;;;5070486;28;19913;-61
2022/12/10 12:00:18;;;;;;;;;;;;;;;;;;5064416;28;19962;-61
2022/12/10 12:02:43;;;;;;;;;;;;;;;;;;5066589;28;19920;-61
2022/12/10 12:05:08;;;;;;;;;;;;;;;;;;5069995;28;19909;-61
2022/12/10 12:07:33;;;;;;;;;;;;;;;;;;5068737;28;19920;-61
2022/12/10 12:09:59;;;;;;;;;;;;;;;;;;5071143;28;20007;-62
2022/12/10 12:12:24;;;;;;;;;;;;;;;;;;5067278;28;19920;-62
2022/12/10 12:14:49;;;;;;;;;;;;;;;;;;5053457;28;19912;-62
2022/12/10 12:17:14;;;;;;;;;;;;;;;;;;5066731;28;19938;-62
2022/12/10 12:19:39;;;;;;;;;;;;;;;;;;5068317;28;19924;-62
2022/12/10 12:22:04;;;;;;;;;;;;;;;;;;5070252;28;19932;-62
2022/12/10 12:24:30;;;;;;;;;;;;;;;;;;5067963;28;19979;-62
2022/12/10 12:26:55;;;;;;;;;;;;;;;;;;5067585;28;19962;-61
2022/12/10 12:29:20;;;;;;;;;;;;;;;;;;5069335;28;19917;-61
2022/12/10 12:31:45;;;;;;;;;;;;;;;;;;5065013;28;20369;-61
2022/12/10 12:34:10;;;;;;;;;;;;;;;;;;5067741;28;19920;-61
2022/12/10 12:36:35;;;;;;;;;;;;;;;;;;5067123;28;19917;-62
2022/12/10 12:39:01;;;;;;;;;;;;;;;;;;5066461;28;19967;-62
2022/12/10 12:41:26;;;;;;;;;;;;;;;;;;5068081;28;20014;-62
2022/12/10 12:43:51;;;;;;;;;;;;;;;;;;5061639;28;20059;-62
2022/12/10 12:46:16;;;;;;;;;;;;;;;;;;5061113;28;19920;-62
2022/12/10 12:48:41;;;;;;;;;;;;;;;;;;5065848;28;19912;-61
2022/12/10 12:51:06;;;;;;;;;;;;;;;;;;5068587;28;19912;-61
2022/12/10 12:53:31;;;;;;;;;;;;;;;;;;5067651;28;19916;-62
2022/12/10 12:55:57;;;;;;;;;;;;;;;;;;5066391;28;20010;-62
2022/12/10 12:58:22;;;;;;;;;;;;;;;;;;5099943;28;20020;-61
2022/12/10 13:00:47;;;;;;;;;;;;;;;;;;5066870;28;19965;-61
2022/12/10 13:03:12;;;;;;;;;;;;;;;;;;5064970;28;20301;-61
2022/12/10 13:05:38;;;;;;;;;;;;;;;;;;5064959;28;19916;-61
2022/12/10 13:08:03;;;;;;;;;;;;;;;;;;5068361;28;19916;-61
2022/12/10 13:10:28;;;;;;;;;;;;;;;;;;5070376;28;19913;-62
2022/12/10 13:12:53;;;;;;;;;;;;;;;;;;5063240;28;19916;-61
2022/12/10 13:15:19;;;;;;;;;;;;;;;;;;5065322;28;20360;-62
2022/12/10 13:17:44;;;;;;;;;;;;;;;;;;5090238;28;19917;-62
2022/12/10 13:20:09;;;;;;;;;;;;;;;;;;5096762;28;19963;-64
2022/12/10 13:22:34;;;;;;;;;;;;;;;;;;5068864;28;20027;-63
2022/12/10 13:25:00;;;;;;;;;;;;;;;;;;5099732;28;19923;-64
2022/12/10 13:27:25;;;;;;;;;;;;;;;;;;5069567;28;19985;-65
2022/12/10 13:29:50;;;;;;;;;;;;;;;;;;5066306;28;19971;-63
2022/12/10 13:32:15;;;;;;;;;;;;;;;;;;5071066;28;20007;-62
2022/12/10 13:34:41;;;;;;;;;;;;;;;;;;5066859;28;19912;-65
2022/12/10 13:37:06;;;;;;;;;;;;;;;;;;5096355;28;19920;-65
2022/12/10 13:39:31;;;;;;;;;;;;;;;;;;5064436;28;19917;-63
2022/12/10 13:44:40;;;;;;;;;;;;;;;;;;5057786;28;19974;-63
2022/12/10 13:47:05;;;;;;;;;;;;;;;;;;5061785;28;19912;-63
2022/12/10 13:49:30;;;;;;;;;;;;;;;;;;5094144;27;20372;-66
2022/12/10 13:51:56;;;;;;;;;;;;;;;;;;5087429;28;19920;-63
2022/12/10 13:54:21;;;;;;;;;;;;;;;;;;5070665;28;19967;-65
2022/12/10 13:56:46;;;;;;;;;;;;;;;;;;5067984;28;19913;-63
2022/12/10 13:59:11;;;;;;;;;;;;;;;;;;5068438;28;19970;-64
2022/12/10 14:01:36;;;;;;;;;;;;;;;;;;5066906;28;19974;-65
2022/12/10 14:04:02;;;;;;;;;;;;;;;;;;5070517;28;19972;-63
2022/12/10 14:06:27;;;;;;;;;;;;;;;;;;5064481;28;19912;-64
2022/12/10 14:08:52;;;;;;;;;;;;;;;;;;5070932;28;19912;-65
2022/12/10 14:11:17;;;;;;;;;;;;;;;;;;5070563;28;19962;-62
2022/12/10 14:13:42;;;;;;;;;;;;;;;;;;5068157;28;20380;-65
2022/12/10 14:16:07;;;;;;;;;;;;;;;;;;5073659;28;20353;-65
2022/12/10 14:18:33;;;;;;;;;;;;;;;;;;5071136;28;19908;-64
2022/12/10 14:20:58;;;;;;;;;;;;;;;;;;5067959;28;19912;-65
2022/12/10 14:23:40;;;;;;;;;;;;;;;;;;5067703;28;20337;-67
2022/12/10 14:26:05;;;;;;;;;;;;;;;;;;5069672;28;21346;-66
2022/12/10 14:28:33;;;;;;;;;;;;;;;;;;5101113;28;19931;-64
2022/12/10 14:30:58;;;;;;;;;;;;;;;;;;5065087;28;19923;-64
2022/12/10 14:33:23;;;;;;;;;;;;;;;;;;5068754;28;19917;-64
2022/12/10 14:35:48;;;;;;;;;;;;;;;;;;5069162;28;19913;-62
2022/12/10 14:38:13;;;;;;;;;;;;;;;;;;5072877;28;20069;-63
2022/12/10 14:40:39;;;;;;;;;;;;;;;;;;5060255;28;20482;-63
2022/12/10 14:43:04;;;;;;;;;;;;;;;;;;5102024;27;19917;-64
2022/12/10 14:45:29;;;;;;;;;;;;;;;;;;5067649;28;20027;-65
2022/12/10 14:47:54;;;;;;;;;;;;;;;;;;5069783;28;20397;-64
2022/12/10 14:50:19;;;;;;;;;;;;;;;;;;5101032;27;19913;-64
2022/12/10 14:52:44;;;;;;;;;;;;;;;;;;5074275;28;19920;-65
2022/12/10 14:55:09;;;;;;;;;;;;;;;;;;5069193;28;19908;-65
2022/12/10 14:57:35;;;;;;;;;;;;;;;;;;5065023;28;19928;-63
2022/12/10 15:00:00;;;;;;;;;;;;;;;;;;5063756;28;19986;-64
2022/12/10 15:02:25;;;;;;;;;;;;;;;;;;5102907;28;20414;-64
2022/12/10 15:04:50;;;;;;;;;;;;;;;;;;5074560;28;20332;-64
2022/12/10 15:07:15;;;;;;;;;;;;;;;;;;5065659;28;19921;-64
2022/12/10 15:09:41;;;;;;;;;;;;;;;;;;5063452;28;19909;-64
2022/12/10 15:12:06;;;;;;;;;;;;;;;;;;5061627;28;19917;-65
2022/12/10 15:14:31;;;;;;;;;;;;;;;;;;5063829;28;19912;-65
2022/12/10 15:16:57;;;;;;;;;;;;;;;;;;5068443;28;19920;-65
2022/12/10 15:19:22;;;;;;;;;;;;;;;;;;5071515;28;20389;-65
2022/12/10 15:21:47;;;;;;;;;;;;;;;;;;5071956;28;19999;-65
2022/12/10 15:24:12;;;;;;;;;;;;;;;;;;5101688;28;19998;-65
2022/12/10 15:26:38;;;;;;;;;;;;;;;;;;5067764;28;19912;-65
2022/12/10 15:29:03;;;;;;;;;;;;;;;;;;5060801;28;19935;-65
2022/12/10 15:31:28;;;;;;;;;;;;;;;;;;5101663;27;19916;-65
2022/12/10 15:33:53;;;;;;;;;;;;;;;;;;5069518;28;20338;-64
2022/12/10 15:36:18;;;;;;;;;;;;;;;;;;5071476;28;19919;-64
2022/12/10 15:38:43;;;;;;;;;;;;;;;;;;5068002;28;20047;-64
2022/12/10 15:41:09;;;;;;;;;;;;;;;;;;5102942;27;19916;-64
2022/12/10 15:43:34;;;;;;;;;;;;;;;;;;5063543;28;19923;-64
2022/12/10 15:45:59;;;;;;;;;;;;;;;;;;5065534;28;19956;-64
2022/12/10 15:48:25;;;;;;;;;;;;;;;;;;5100848;27;19923;-64
2022/12/10 15:50:51;;;;;;;;;;;;;;;;;;5106475;27;19919;-64
2022/12/10 15:53:16;;;;;;;;;;;;;;;;;;5065137;28;19916;-65
2022/12/10 15:55:42;;;;;;;;;;;;;;;;;;5094639;28;19917;-64
2022/12/10 15:58:07;;;;;;;;;;;;;;;;;;5096501;28;19913;-65
2022/12/10 16:00:32;;;;;;;;;;;;;;;;;;5067097;28;20435;-65
2022/12/10 16:02:57;;;;;;;;;;;;;;;;;;5104542;27;20333;-65
2022/12/10 16:05:22;;;;;;;;;;;;;;;;;;5099504;28;19920;-65
2022/12/10 16:07:48;;;;;;;;;;;;;;;;;;5069029;28;19919;-65
2022/12/10 16:10:13;;;;;;;;;;;;;;;;;;5068140;28;19912;-65
2022/12/10 16:12:38;;;;;;;;;;;;;;;;;;5094106;27;19932;-65
2022/12/10 16:15:04;;;;;;;;;;;;;;;;;;5060205;28;19917;-64
2022/12/10 16:17:29;;;;;;;;;;;;;;;;;;5091936;27;19973;-65
2022/12/10 16:19:54;;;;;;;;;;;;;;;;;;5102576;27;19916;-65
2022/12/10 16:22:19;;;;;;;;;;;;;;;;;;5068334;28;19940;-65
2022/12/10 16:24:44;;;;;;;;;;;;;;;;;;5065600;28;19960;-64
2022/12/10 16:27:09;;;;;;;;;;;;;;;;;;5071666;28;19920;-65
2022/12/10 16:29:35;;;;;;;;;;;;;;;;;;5101918;27;20015;-64
2022/12/10 16:32:00;;;;;;;;;;;;;;;;;;5100825;27;19951;-65
2022/12/10 16:34:25;;;;;;;;;;;;;;;;;;5063525;28;20418;-65
2022/12/10 16:36:50;;;;;;;;;;;;;;;;;;5068499;28;19913;-65
2022/12/10 16:39:15;;;;;;;;;;;;;;;;;;5069863;28;19917;-65
2022/12/10 16:41:41;;;;;;;;;;;;;;;;;;5067700;28;19927;-65